KTIW/TIW METAR and TAF weather

Enter ICAO airport designator
Station Type Date Time Source
KTIW METAR 2021/09/20 04:53 UTC NOAA

KTIW 200453Z AUTO 24005KT 10SM CLR 12/11 A3020 RMK AO2 SLP227 T01220111


Station Type Date Time Source
KTIW Decoded METAR 2021/09/20 04:53 UTC NOAA

Tacoma, Tacoma Narrows Airport, WA, United States (KTIW) 47-16-03N 122-34-34W 96M
Sep 20, 2021 - 12:53 AM EDT / 2021.09.20 0453 UTC
Wind: from the WSW (240 degrees) at 6 MPH (5 KT):0
Visibility: 10 mile(s):0
Sky conditions: clear
Temperature: 54.0 F (12.2 C)
Dew Point: 52.0 F (11.1 C)
Relative Humidity: 92%
Pressure (altimeter): 30.2 in. Hg (1022 hPa)
ob: KTIW 200453Z AUTO 24005KT 10SM CLR 12/11 A3020 RMK AO2 SLP227 T01220111
cycle: 5

Station Type Date Time Source
KTIW TAF UTC NOAA

Error!

Example: see airport list